Main page
METAR-TAF:

METAR-TAF

Airports :

Mehrabad International Airport

Tehran, Iran

latitude: 35-41N, longitude: 051-21E, elevation: 1204 m

Current weather observation

The report was made 30 minutes ago, at 06:30 UTC
Wind 6 kt from the Southeast
Temperature 30°C
Humidity 18%
Pressure 1011 hPa
Visibility: 8000 m
Few clouds at a height of 3500 ft

METAR: OIII 190630Z 13006KT 8000 FEW035 30/03 Q1010 A2984

Time: 11:30 (07:00 UTC)

Forecast

The report was made 1 hour and 30 minutes ago, at 05:30 UTC
Forecast valid from 19 at 06 UTC to 20 at 12 UTC
Wind 8 kt from the East/Southeast
Visibility 10 km or more
no clouds below 1500 m and no cumulonimbus
Temporary
from 19 at 15 UTC to 19 at 22 UTC
Wind 16 kt from the Northwest

TAF: OIII 190530Z 1906/2012 12004MPS CAVOK TEMPO 1915/1922 32008MPS

Weather observations and forecasts of more than 4000 airports (METAR and TAF reports).

The available stations are represented by yellow and red dots on the map.

Hover mouse over dot to see the name of the station.

Then click to see weather observations and forecasts.

To change the map : click on the green buttons with a black cross to zoom in, on the green button with a dash to zoom out, or on the green arrows for adjacent maps.


METAR-TAF: